sensor_id;sensor_type;location;lat;lon;timestamp;pressure;altitude;pressure_sealevel;temperature;humidity
21361;BME280;10839;43.206;23.550;2023-04-10T00:02:18;97460.50;;;8.96;100.00
21361;BME280;10839;43.206;23.550;2023-04-10T00:04:44;97448.78;;;8.89;100.00
21361;BME280;10839;43.206;23.550;2023-04-10T00:07:10;97455.00;;;8.89;100.00
21361;BME280;10839;43.206;23.550;2023-04-10T00:09:36;97451.78;;;8.94;100.00
21361;BME280;10839;43.206;23.550;2023-04-10T00:12:03;97445.34;;;9.03;100.00
21361;BME280;10839;43.206;23.550;2023-04-10T00:14:29;97450.22;;;8.99;100.00
21361;BME280;10839;43.206;23.550;2023-04-10T00:16:55;97446.41;;;8.94;100.00
21361;BME280;10839;43.206;23.550;2023-04-10T00:19:21;97447.38;;;9.01;100.00
21361;BME280;10839;43.206;23.550;2023-04-10T00:21:46;97448.06;;;8.95;100.00
21361;BME280;10839;43.206;23.550;2023-04-10T00:24:12;97439.00;;;8.96;100.00
21361;BME280;10839;43.206;23.550;2023-04-10T00:26:39;97438.03;;;8.89;100.00
21361;BME280;10839;43.206;23.550;2023-04-10T00:29:05;97441.75;;;8.88;100.00
21361;BME280;10839;43.206;23.550;2023-04-10T00:31:31;97435.41;;;8.81;100.00
21361;BME280;10839;43.206;23.550;2023-04-10T00:33:57;97434.44;;;8.74;100.00
21361;BME280;10839;43.206;23.550;2023-04-10T00:36:22;97425.00;;;8.86;100.00
21361;BME280;10839;43.206;23.550;2023-04-10T00:38:48;97430.78;;;8.75;100.00
21361;BME280;10839;43.206;23.550;2023-04-10T00:41:15;97430.78;;;8.75;100.00
21361;BME280;10839;43.206;23.550;2023-04-10T00:43:42;97429.75;;;8.76;100.00
21361;BME280;10839;43.206;23.550;2023-04-10T00:46:08;97422.06;;;8.73;100.00
21361;BME280;10839;43.206;23.550;2023-04-10T00:48:35;97424.06;;;8.71;100.00
21361;BME280;10839;43.206;23.550;2023-04-10T00:51:01;97423.34;;;8.77;100.00
21361;BME280;10839;43.206;23.550;2023-04-10T00:53:27;97414.97;;;8.80;100.00
21361;BME280;10839;43.206;23.550;2023-04-10T00:55:55;97413.84;;;8.97;100.00
21361;BME280;10839;43.206;23.550;2023-04-10T00:58:21;97416.47;;;8.82;100.00
21361;BME280;10839;43.206;23.550;2023-04-10T01:00:47;97423.84;;;8.80;100.00
21361;BME280;10839;43.206;23.550;2023-04-10T01:03:17;97414.63;;;8.83;100.00
21361;BME280;10839;43.206;23.550;2023-04-10T01:14:26;97406.94;;;8.80;100.00
21361;BME280;10839;43.206;23.550;2023-04-10T01:17:00;97397.66;;;8.60;100.00
21361;BME280;10839;43.206;23.550;2023-04-10T01:21:55;97402.09;;;8.45;100.00
21361;BME280;10839;43.206;23.550;2023-04-10T01:24:42;97394.25;;;8.43;100.00
21361;BME280;10839;43.206;23.550;2023-04-10T01:27:33;97389.69;;;8.44;100.00
21361;BME280;10839;43.206;23.550;2023-04-10T01:30:02;97383.59;;;8.58;100.00
21361;BME280;10839;43.206;23.550;2023-04-10T01:32:33;97391.94;;;8.63;100.00
21361;BME280;10839;43.206;23.550;2023-04-10T01:35:05;97387.94;;;8.59;100.00
21361;BME280;10839;43.206;23.550;2023-04-10T01:37:34;97392.69;;;8.49;100.00
21361;BME280;10839;43.206;23.550;2023-04-10T01:40:04;97399.66;;;8.27;100.00
21361;BME280;10839;43.206;23.550;2023-04-10T01:42:40;97391.81;;;8.18;100.00
21361;BME280;10839;43.206;23.550;2023-04-10T01:45:12;97391.97;;;8.16;100.00
21361;BME280;10839;43.206;23.550;2023-04-10T01:47:43;97384.16;;;8.07;100.00
21361;BME280;10839;43.206;23.550;2023-04-10T01:50:10;97397.44;;;8.39;100.00
21361;BME280;10839;43.206;23.550;2023-04-10T01:52:38;97398.88;;;8.11;100.00
21361;BME280;10839;43.206;23.550;2023-04-10T01:55:15;97392.03;;;8.00;100.00
21361;BME280;10839;43.206;23.550;2023-04-10T01:57:47;97397.88;;;8.04;100.00
21361;BME280;10839;43.206;23.550;2023-04-10T02:00:15;97387.50;;;8.01;100.00
21361;BME280;10839;43.206;23.550;2023-04-10T02:02:42;97395.53;;;8.01;100.00
21361;BME280;10839;43.206;23.550;2023-04-10T02:05:09;97396.19;;;8.11;100.00
21361;BME280;10839;43.206;23.550;2023-04-10T02:07:45;97390.81;;;8.11;100.00
21361;BME280;10839;43.206;23.550;2023-04-10T02:10:24;97393.19;;;8.06;100.00
21361;BME280;10839;43.206;23.550;2023-04-10T02:13:05;97393.22;;;7.98;100.00
21361;BME280;10839;43.206;23.550;2023-04-10T02:15:33;97397.94;;;7.88;100.00
21361;BME280;10839;43.206;23.550;2023-04-10T02:18:01;97382.44;;;7.75;100.00
21361;BME280;10839;43.206;23.550;2023-04-10T02:20:29;97383.50;;;8.05;100.00
21361;BME280;10839;43.206;23.550;2023-04-10T02:22:57;97379.50;;;7.93;100.00
21361;BME280;10839;43.206;23.550;2023-04-10T02:25:34;97372.91;;;8.11;100.00
21361;BME280;10839;43.206;23.550;2023-04-10T02:28:04;97366.34;;;8.14;100.00
21361;BME280;10839;43.206;23.550;2023-04-10T02:30:30;97373.78;;;7.96;100.00
21361;BME280;10839;43.206;23.550;2023-04-10T02:32:59;97380.50;;;8.00;100.00
21361;BME280;10839;43.206;23.550;2023-04-10T02:35:27;97367.44;;;7.97;100.00
21361;BME280;10839;43.206;23.550;2023-04-10T02:37:55;97372.50;;;7.83;100.00
21361;BME280;10839;43.206;23.550;2023-04-10T02:40:22;97368.47;;;7.88;100.00
21361;BME280;10839;43.206;23.550;2023-04-10T02:43:09;97371.50;;;7.85;100.00
21361;BME280;10839;43.206;23.550;2023-04-10T02:45:34;97361.50;;;7.70;100.00
21361;BME280;10839;43.206;23.550;2023-04-10T02:48:04;97369.66;;;7.77;100.00
21361;BME280;10839;43.206;23.550;2023-04-10T02:50:30;97370.38;;;7.71;100.00
21361;BME280;10839;43.206;23.550;2023-04-10T02:52:58;97368.56;;;7.63;100.00
21361;BME280;10839;43.206;23.550;2023-04-10T02:55:23;97378.94;;;7.66;100.00
21361;BME280;10839;43.206;23.550;2023-04-10T02:57:49;97373.59;;;7.58;100.00
21361;BME280;10839;43.206;23.550;2023-04-10T03:00:16;97366.84;;;7.70;100.00
21361;BME280;10839;43.206;23.550;2023-04-10T03:03:07;97380.41;;;7.69;100.00
21361;BME280;10839;43.206;23.550;2023-04-10T03:05:46;97377.94;;;7.59;100.00
21361;BME280;10839;43.206;23.550;2023-04-10T03:08:15;97375.94;;;7.45;100.00
21361;BME280;10839;43.206;23.550;2023-04-10T03:10:44;97370.28;;;7.48;100.00
21361;BME280;10839;43.206;23.550;2023-04-10T03:13:10;97371.56;;;7.60;100.00
21361;BME280;10839;43.206;23.550;2023-04-10T03:15:37;97381.31;;;7.29;100.00
21361;BME280;10839;43.206;23.550;2023-04-10T03:18:03;97371.94;;;7.25;100.00
21361;BME280;10839;43.206;23.550;2023-04-10T03:20:32;97370.97;;;7.18;100.00
21361;BME280;10839;43.206;23.550;2023-04-10T03:23:00;97373.31;;;7.21;100.00
21361;BME280;10839;43.206;23.550;2023-04-10T03:25:27;97374.63;;;7.25;100.00
21361;BME280;10839;43.206;23.550;2023-04-10T03:27:53;97379.31;;;7.15;100.00
21361;BME280;10839;43.206;23.550;2023-04-10T03:30:19;97375.16;;;6.97;100.00
21361;BME280;10839;43.206;23.550;2023-04-10T03:32:47;97379.66;;;7.12;100.00
21361;BME280;10839;43.206;23.550;2023-04-10T03:35:13;97376.66;;;7.07;100.00
21361;BME280;10839;43.206;23.550;2023-04-10T03:37:38;97371.16;;;7.17;100.00
21361;BME280;10839;43.206;23.550;2023-04-10T03:40:08;97378.47;;;6.99;100.00
21361;BME280;10839;43.206;23.550;2023-04-10T03:42:34;97371.63;;;7.04;100.00
21361;BME280;10839;43.206;23.550;2023-04-10T03:45:02;97377.66;;;6.98;100.00
21361;BME280;10839;43.206;23.550;2023-04-10T03:47:30;97369.97;;;7.03;100.00
21361;BME280;10839;43.206;23.550;2023-04-10T03:49:57;97375.81;;;6.99;100.00
21361;BME280;10839;43.206;23.550;2023-04-10T03:52:25;97386.69;;;6.97;100.00
21361;BME280;10839;43.206;23.550;2023-04-10T03:54:54;97390.03;;;6.99;100.00
21361;BME280;10839;43.206;23.550;2023-04-10T03:57:26;97389.03;;;7.00;100.00
21361;BME280;10839;43.206;23.550;2023-04-10T03:59:58;97381.50;;;6.88;100.00
21361;BME280;10839;43.206;23.550;2023-04-10T04:02:25;97390.72;;;6.93;100.00
21361;BME280;10839;43.206;23.550;2023-04-10T04:04:53;97399.06;;;7.06;100.00
21361;BME280;10839;43.206;23.550;2023-04-10T04:07:39;97401.91;;;6.97;100.00
21361;BME280;10839;43.206;23.550;2023-04-10T04:10:28;97401.75;;;7.06;100.00
21361;BME280;10839;43.206;23.550;2023-04-10T04:13:12;97397.41;;;7.13;100.00
21361;BME280;10839;43.206;23.550;2023-04-10T04:16:04;97407.41;;;7.35;100.00
21361;BME280;10839;43.206;23.550;2023-04-10T04:18:44;97402.38;;;7.32;100.00
21361;BME280;10839;43.206;23.550;2023-04-10T04:21:20;97411.44;;;7.31;100.00
21361;BME280;10839;43.206;23.550;2023-04-10T04:24:18;97414.44;;;7.36;100.00
21361;BME280;10839;43.206;23.550;2023-04-10T04:27:02;97412.78;;;7.43;100.00
21361;BME280;10839;43.206;23.550;2023-04-10T04:29:55;97413.75;;;7.42;100.00
21361;BME280;10839;43.206;23.550;2023-04-10T04:32:24;97417.41;;;7.57;100.00
21361;BME280;10839;43.206;23.550;2023-04-10T04:35:12;97423.78;;;7.64;100.00
21361;BME280;10839;43.206;23.550;2023-04-10T04:37:54;97421.75;;;7.74;100.00
21361;BME280;10839;43.206;23.550;2023-04-10T04:40:38;97426.09;;;7.75;100.00
21361;BME280;10839;43.206;23.550;2023-04-10T04:43:22;97428.38;;;8.03;100.00
21361;BME280;10839;43.206;23.550;2023-04-10T04:46:06;97427.38;;;7.96;100.00
21361;BME280;10839;43.206;23.550;2023-04-10T04:49:11;97421.66;;;7.99;100.00
21361;BME280;10839;43.206;23.550;2023-04-10T04:52:02;97427.97;;;8.30;100.00
21361;BME280;10839;43.206;23.550;2023-04-10T04:54:41;97434.38;;;8.13;100.00
21361;BME280;10839;43.206;23.550;2023-04-10T04:57:27;97428.94;;;8.37;100.00
21361;BME280;10839;43.206;23.550;2023-04-10T05:00:04;97424.19;;;8.55;100.00
21361;BME280;10839;43.206;23.550;2023-04-10T05:02:49;97433.75;;;8.80;100.00
21361;BME280;10839;43.206;23.550;2023-04-10T05:05:27;97429.63;;;9.37;100.00
21361;BME280;10839;43.206;23.550;2023-04-10T05:08:11;97427.03;;;9.66;100.00
21361;BME280;10839;43.206;23.550;2023-04-10T05:10:57;97439.94;;;10.00;100.00
21361;BME280;10839;43.206;23.550;2023-04-10T05:13:55;97442.31;;;10.17;100.00
21361;BME280;10839;43.206;23.550;2023-04-10T05:16:32;97432.00;;;10.50;100.00
21361;BME280;10839;43.206;23.550;2023-04-10T05:19:21;97429.63;;;11.33;100.00
21361;BME280;10839;43.206;23.550;2023-04-10T05:22:19;97442.31;;;12.09;95.29
21361;BME280;10839;43.206;23.550;2023-04-10T05:25:12;97440.72;;;12.14;94.52
21361;BME280;10839;43.206;23.550;2023-04-10T05:27:57;97448.16;;;12.12;94.52
21361;BME280;10839;43.206;23.550;2023-04-10T05:30:58;97431.44;;;12.64;92.65
21361;BME280;10839;43.206;23.550;2023-04-10T05:33:43;97438.34;;;13.40;90.05
21361;BME280;10839;43.206;23.550;2023-04-10T05:36:27;97442.97;;;13.65;87.89
21361;BME280;10839;43.206;23.550;2023-04-10T05:39:14;97441.72;;;14.07;82.87
21361;BME280;10839;43.206;23.550;2023-04-10T05:42:19;97444.09;;;14.67;77.60
21361;BME280;10839;43.206;23.550;2023-04-10T05:44:52;97434.97;;;14.68;78.96
21361;BME280;10839;43.206;23.550;2023-04-10T05:47:46;97439.13;;;14.64;80.19
21361;BME280;10839;43.206;23.550;2023-04-10T05:50:34;97433.75;;;15.08;78.95
21361;BME280;10839;43.206;23.550;2023-04-10T05:53:35;97443.22;;;15.68;75.73
21361;BME280;10839;43.206;23.550;2023-04-10T05:56:40;97440.06;;;15.96;73.32
21361;BME280;10839;43.206;23.550;2023-04-10T05:59:26;97436.75;;;16.79;69.38
21361;BME280;10839;43.206;23.550;2023-04-10T06:01:58;97442.81;;;16.14;71.47
21361;BME280;10839;43.206;23.550;2023-04-10T06:04:26;97443.78;;;16.44;71.34
21361;BME280;10839;43.206;23.550;2023-04-10T06:06:54;97445.06;;;16.84;68.59
21361;BME280;10839;43.206;23.550;2023-04-10T06:09:20;97442.16;;;17.15;67.43
21361;BME280;10839;43.206;23.550;2023-04-10T06:11:46;97459.56;;;16.11;71.00
21361;BME280;10839;43.206;23.550;2023-04-10T06:14:17;97450.75;;;15.91;73.09
21361;BME280;10839;43.206;23.550;2023-04-10T06:16:45;97445.81;;;16.55;69.26
21361;BME280;10839;43.206;23.550;2023-04-10T06:19:10;97445.06;;;15.36;74.08
21361;BME280;10839;43.206;23.550;2023-04-10T06:21:36;97450.44;;;15.50;76.28
21361;BME280;10839;43.206;23.550;2023-04-10T06:24:02;97458.19;;;16.02;73.06
21361;BME280;10839;43.206;23.550;2023-04-10T06:26:28;97453.66;;;16.63;69.96
21361;BME280;10839;43.206;23.550;2023-04-10T06:28:54;97460.22;;;16.31;70.00
21361;BME280;10839;43.206;23.550;2023-04-10T06:31:20;97453.28;;;16.96;67.92
21361;BME280;10839;43.206;23.550;2023-04-10T06:33:48;97444.88;;;17.33;66.13
21361;BME280;10839;43.206;23.550;2023-04-10T06:36:14;97447.47;;;17.58;66.06
21361;BME280;10839;43.206;23.550;2023-04-10T06:38:46;97448.69;;;17.73;64.63
21361;BME280;10839;43.206;23.550;2023-04-10T06:41:12;97444.25;;;19.06;61.52
21361;BME280;10839;43.206;23.550;2023-04-10T06:43:38;97445.66;;;19.48;58.32
21361;BME280;10839;43.206;23.550;2023-04-10T06:46:04;97449.31;;;19.14;58.45
21361;BME280;10839;43.206;23.550;2023-04-10T06:48:31;97454.28;;;19.17;58.58
21361;BME280;10839;43.206;23.550;2023-04-10T06:50:57;97447.03;;;18.83;59.07
21361;BME280;10839;43.206;23.550;2023-04-10T06:53:25;97449.66;;;18.78;59.59
21361;BME280;10839;43.206;23.550;2023-04-10T06:55:51;97454.50;;;18.64;60.49
21361;BME280;10839;43.206;23.550;2023-04-10T06:58:17;97457.22;;;19.39;58.32
21361;BME280;10839;43.206;23.550;2023-04-10T07:00:43;97449.56;;;19.80;57.54
21361;BME280;10839;43.206;23.550;2023-04-10T07:03:09;97457.66;;;19.47;57.77
21361;BME280;10839;43.206;23.550;2023-04-10T07:05:35;97456.44;;;19.15;58.30
21361;BME280;10839;43.206;23.550;2023-04-10T07:08:00;97457.47;;;19.65;57.10
21361;BME280;10839;43.206;23.550;2023-04-10T07:10:26;97453.44;;;19.17;57.48
21361;BME280;10839;43.206;23.550;2023-04-10T07:12:52;97452.72;;;18.58;59.84
21361;BME280;10839;43.206;23.550;2023-04-10T07:15:18;97459.00;;;18.59;60.70
21361;BME280;10839;43.206;23.550;2023-04-10T07:17:43;97461.41;;;19.18;58.99
21361;BME280;10839;43.206;23.550;2023-04-10T07:20:10;97462.41;;;18.20;62.35
21361;BME280;10839;43.206;23.550;2023-04-10T07:22:36;97458.38;;;18.11;62.89
21361;BME280;10839;43.206;23.550;2023-04-10T07:25:02;97463.91;;;17.51;64.12
21361;BME280;10839;43.206;23.550;2023-04-10T07:27:27;97458.81;;;16.89;66.16
21361;BME280;10839;43.206;23.550;2023-04-10T07:29:54;97468.44;;;16.49;68.29
21361;BME280;10839;43.206;23.550;2023-04-10T07:32:22;97461.09;;;15.76;72.53
21361;BME280;10839;43.206;23.550;2023-04-10T07:34:48;97468.88;;;15.66;74.21
21361;BME280;10839;43.206;23.550;2023-04-10T07:37:14;97458.44;;;15.31;75.40
21361;BME280;10839;43.206;23.550;2023-04-10T07:39:40;97467.34;;;15.01;77.30
21361;BME280;10839;43.206;23.550;2023-04-10T07:42:06;97470.13;;;14.81;78.93
21361;BME280;10839;43.206;23.550;2023-04-10T07:44:32;97458.66;;;14.79;81.00
21361;BME280;10839;43.206;23.550;2023-04-10T07:46:57;97466.09;;;15.03;80.84
21361;BME280;10839;43.206;23.550;2023-04-10T07:49:23;97458.75;;;15.04;79.37
21361;BME280;10839;43.206;23.550;2023-04-10T07:51:49;97460.75;;;14.77;83.05
21361;BME280;10839;43.206;23.550;2023-04-10T07:54:15;97459.13;;;14.70;83.36
21361;BME280;10839;43.206;23.550;2023-04-10T07:56:41;97462.31;;;14.47;83.74
21361;BME280;10839;43.206;23.550;2023-04-10T07:59:06;97457.13;;;14.26;84.36
21361;BME280;10839;43.206;23.550;2023-04-10T08:01:32;97464.38;;;14.19;84.81
21361;BME280;10839;43.206;23.550;2023-04-10T08:03:58;97457.31;;;14.31;83.98
21361;BME280;10839;43.206;23.550;2023-04-10T08:06:24;97460.44;;;13.76;87.61
21361;BME280;10839;43.206;23.550;2023-04-10T08:08:50;97453.78;;;13.72;88.45
21361;BME280;10839;43.206;23.550;2023-04-10T08:11:26;97470.41;;;13.56;89.07
21361;BME280;10839;43.206;23.550;2023-04-10T08:13:54;97458.34;;;13.71;87.94
21361;BME280;10839;43.206;23.550;2023-04-10T08:16:24;97461.16;;;13.18;90.58
21361;BME280;10839;43.206;23.550;2023-04-10T08:18:51;97461.28;;;13.70;88.46
21361;BME280;10839;43.206;23.550;2023-04-10T08:21:18;97459.19;;;13.98;86.92
21361;BME280;10839;43.206;23.550;2023-04-10T08:23:44;97460.47;;;14.02;86.36
21361;BME280;10839;43.206;23.550;2023-04-10T08:26:13;97464.19;;;14.40;85.06
21361;BME280;10839;43.206;23.550;2023-04-10T08:28:39;97469.19;;;14.17;86.14
21361;BME280;10839;43.206;23.550;2023-04-10T08:31:05;97469.19;;;14.17;86.75
21361;BME280;10839;43.206;23.550;2023-04-10T08:33:31;97467.72;;;14.47;85.22
21361;BME280;10839;43.206;23.550;2023-04-10T08:35:57;97464.19;;;14.47;84.30
21361;BME280;10839;43.206;23.550;2023-04-10T08:38:22;97469.41;;;14.35;84.78
21361;BME280;10839;43.206;23.550;2023-04-10T08:40:52;97458.72;;;14.66;83.33
21361;BME280;10839;43.206;23.550;2023-04-10T08:43:18;97459.03;;;14.26;86.67
21361;BME280;10839;43.206;23.550;2023-04-10T08:45:44;97460.88;;;14.38;84.80
21361;BME280;10839;43.206;23.550;2023-04-10T08:48:10;97456.31;;;14.26;84.90
21361;BME280;10839;43.206;23.550;2023-04-10T08:50:41;97459.41;;;14.42;85.09
21361;BME280;10839;43.206;23.550;2023-04-10T08:53:10;97451.06;;;14.11;87.27
21361;BME280;10839;43.206;23.550;2023-04-10T08:55:38;97458.28;;;14.69;83.29
21361;BME280;10839;43.206;23.550;2023-04-10T08:58:05;97460.03;;;14.31;84.42
21361;BME280;10839;43.206;23.550;2023-04-10T09:00:35;97460.03;;;14.31;84.19
21361;BME280;10839;43.206;23.550;2023-04-10T09:03:05;97461.28;;;14.35;81.79
21361;BME280;10839;43.206;23.550;2023-04-10T09:05:34;97458.16;;;14.38;83.33
21361;BME280;10839;43.206;23.550;2023-04-10T09:08:02;97445.75;;;14.81;82.54
21361;BME280;10839;43.206;23.550;2023-04-10T09:10:28;97457.00;;;14.78;82.67
21361;BME280;10839;43.206;23.550;2023-04-10T09:12:54;97445.31;;;14.84;82.46
21361;BME280;10839;43.206;23.550;2023-04-10T09:15:20;97444.50;;;14.84;82.98
21361;BME280;10839;43.206;23.550;2023-04-10T09:18:00;97449.09;;;14.77;82.07
21361;BME280;10839;43.206;23.550;2023-04-10T09:20:30;97444.13;;;14.61;82.89
21361;BME280;10839;43.206;23.550;2023-04-10T09:22:56;97436.47;;;15.08;80.41
21361;BME280;10839;43.206;23.550;2023-04-10T09:25:41;97439.03;;;14.90;82.71
21361;BME280;10839;43.206;23.550;2023-04-10T09:28:07;97450.16;;;15.20;81.27
21361;BME280;10839;43.206;23.550;2023-04-10T09:30:36;97441.19;;;14.75;83.57
21361;BME280;10839;43.206;23.550;2023-04-10T09:33:11;97437.09;;;14.53;85.76
21361;BME280;10839;43.206;23.550;2023-04-10T09:35:45;97431.91;;;14.96;84.41
21361;BME280;10839;43.206;23.550;2023-04-10T09:38:18;97433.66;;;15.59;81.20
21361;BME280;10839;43.206;23.550;2023-04-10T09:40:46;97431.72;;;15.35;81.24
21361;BME280;10839;43.206;23.550;2023-04-10T09:43:23;97434.66;;;14.89;82.78
21361;BME280;10839;43.206;23.550;2023-04-10T09:45:56;97432.69;;;15.09;82.39
21361;BME280;10839;43.206;23.550;2023-04-10T09:48:23;97434.72;;;15.20;80.26
21361;BME280;10839;43.206;23.550;2023-04-10T09:50:49;97435.75;;;15.19;81.24
21361;BME280;10839;43.206;23.550;2023-04-10T09:53:17;97433.16;;;15.37;79.49
21361;BME280;10839;43.206;23.550;2023-04-10T09:55:45;97425.19;;;15.11;81.96
21361;BME280;10839;43.206;23.550;2023-04-10T09:58:12;97416.13;;;15.62;78.86
21361;BME280;10839;43.206;23.550;2023-04-10T10:00:41;97431.75;;;15.91;78.96
21361;BME280;10839;43.206;23.550;2023-04-10T10:03:09;97412.97;;;15.65;77.61
21361;BME280;10839;43.206;23.550;2023-04-10T10:05:41;97415.34;;;15.55;78.25
21361;BME280;10839;43.206;23.550;2023-04-10T10:08:09;97416.47;;;15.96;76.73
21361;BME280;10839;43.206;23.550;2023-04-10T10:10:44;97415.19;;;16.23;76.77
21361;BME280;10839;43.206;23.550;2023-04-10T10:13:21;97401.66;;;16.78;73.79
21361;BME280;10839;43.206;23.550;2023-04-10T10:16:46;97399.03;;;16.53;73.11
21361;BME280;10839;43.206;23.550;2023-04-10T10:18:54;97398.25;;;16.82;70.83
21361;BME280;10839;43.206;23.550;2023-04-10T10:21:23;97399.94;;;17.42;69.72
21361;BME280;10839;43.206;23.550;2023-04-10T10:23:54;97392.34;;;17.74;66.74
21361;BME280;10839;43.206;23.550;2023-04-10T10:26:22;97389.22;;;18.46;64.24
21361;BME280;10839;43.206;23.550;2023-04-10T10:28:50;97395.84;;;18.16;64.62
21361;BME280;10839;43.206;23.550;2023-04-10T10:31:20;97398.81;;;19.00;61.95
21361;BME280;10839;43.206;23.550;2023-04-10T10:33:47;97391.59;;;18.20;60.59
21361;BME280;10839;43.206;23.550;2023-04-10T10:36:14;97385.75;;;18.74;59.80
21361;BME280;10839;43.206;23.550;2023-04-10T10:38:46;97387.63;;;19.53;57.82
21361;BME280;10839;43.206;23.550;2023-04-10T10:46:39;97382.06;;;19.48;52.35
21361;BME280;10839;43.206;23.550;2023-04-10T10:49:07;97377.59;;;19.58;51.86
21361;BME280;10839;43.206;23.550;2023-04-10T10:51:49;97370.25;;;20.08;51.68
21361;BME280;10839;43.206;23.550;2023-04-10T10:54:34;97360.66;;;19.56;50.61
21361;BME280;10839;43.206;23.550;2023-04-10T10:57:01;97345.16;;;19.17;52.42
21361;BME280;10839;43.206;23.550;2023-04-10T11:00:00;97356.84;;;19.01;51.19
21361;BME280;10839;43.206;23.550;2023-04-10T11:02:26;97356.50;;;18.12;53.21
21361;BME280;10839;43.206;23.550;2023-04-10T11:04:52;97343.97;;;18.11;54.46
21361;BME280;10839;43.206;23.550;2023-04-10T11:07:17;97344.69;;;17.95;54.84
21361;BME280;10839;43.206;23.550;2023-04-10T11:09:49;97333.78;;;18.80;52.11
21361;BME280;10839;43.206;23.550;2023-04-10T11:12:18;97333.88;;;18.57;52.49
21361;BME280;10839;43.206;23.550;2023-04-10T11:14:58;97315.84;;;18.33;53.45
21361;BME280;10839;43.206;23.550;2023-04-10T11:17:50;97327.38;;;18.24;54.93
21361;BME280;10839;43.206;23.550;2023-04-10T11:20:17;97326.44;;;17.83;54.83
21361;BME280;10839;43.206;23.550;2023-04-10T11:23:10;97319.81;;;17.91;54.43
21361;BME280;10839;43.206;23.550;2023-04-10T11:25:53;97311.78;;;17.96;53.07
21361;BME280;10839;43.206;23.550;2023-04-10T11:28:33;97325.63;;;17.95;53.53
21361;BME280;10839;43.206;23.550;2023-04-10T11:31:20;97312.00;;;17.71;52.11
21361;BME280;10839;43.206;23.550;2023-04-10T11:33:48;97321.59;;;17.85;52.96
21361;BME280;10839;43.206;23.550;2023-04-10T11:36:15;97310.91;;;17.49;52.71
21361;BME280;10839;43.206;23.550;2023-04-10T11:39:05;97322.63;;;18.54;51.50
21361;BME280;10839;43.206;23.550;2023-04-10T11:41:36;97306.47;;;18.64;52.22
21361;BME280;10839;43.206;23.550;2023-04-10T11:44:06;97306.81;;;17.81;51.24
21361;BME280;10839;43.206;23.550;2023-04-10T11:46:41;97297.22;;;17.79;53.54
21361;BME280;10839;43.206;23.550;2023-04-10T11:49:08;97297.94;;;16.92;51.65
21361;BME280;10839;43.206;23.550;2023-04-10T11:51:36;97295.13;;;17.28;52.91
21361;BME280;10839;43.206;23.550;2023-04-10T11:56:40;97295.63;;;17.48;54.47
21361;BME280;10839;43.206;23.550;2023-04-10T11:59:07;97283.53;;;17.44;54.92
21361;BME280;10839;43.206;23.550;2023-04-10T12:01:44;97286.22;;;16.80;53.40
21361;BME280;10839;43.206;23.550;2023-04-10T12:04:18;97285.38;;;16.50;56.08
21361;BME280;10839;43.206;23.550;2023-04-10T12:06:50;97283.53;;;16.44;57.64
21361;BME280;10839;43.206;23.550;2023-04-10T12:09:19;97280.50;;;16.70;57.47
21361;BME280;10839;43.206;23.550;2023-04-10T12:12:02;97272.22;;;16.95;54.27
21361;BME280;10839;43.206;23.550;2023-04-10T12:14:34;97277.94;;;16.39;52.48
21361;BME280;10839;43.206;23.550;2023-04-10T12:17:01;97278.19;;;15.83;53.81
21361;BME280;10839;43.206;23.550;2023-04-10T12:19:28;97289.03;;;15.41;53.58
21361;BME280;10839;43.206;23.550;2023-04-10T12:21:58;97276.88;;;14.87;54.52
21361;BME280;10839;43.206;23.550;2023-04-10T12:24:43;97263.91;;;15.52;54.78
21361;BME280;10839;43.206;23.550;2023-04-10T12:27:18;97260.78;;;16.09;53.69
21361;BME280;10839;43.206;23.550;2023-04-10T12:29:45;97252.56;;;16.33;52.45
21361;BME280;10839;43.206;23.550;2023-04-10T12:32:11;97247.03;;;16.99;52.10
21361;BME280;10839;43.206;23.550;2023-04-10T12:34:37;97247.97;;;16.93;49.73
21361;BME280;10839;43.206;23.550;2023-04-10T12:37:03;97240.59;;;17.23;47.64
21361;BME280;10839;43.206;23.550;2023-04-10T12:39:29;97236.88;;;17.06;46.67
21361;BME280;10839;43.206;23.550;2023-04-10T12:44:55;97232.88;;;15.66;50.41
21361;BME280;10839;43.206;23.550;2023-04-10T12:47:22;97228.50;;;15.15;52.26
21361;BME280;10839;43.206;23.550;2023-04-10T12:52:34;97222.00;;;14.67;57.55
21361;BME280;10839;43.206;23.550;2023-04-10T12:55:19;97228.06;;;14.32;64.21
21361;BME280;10839;43.206;23.550;2023-04-10T12:57:48;97230.13;;;14.36;67.13
21361;BME280;10839;43.206;23.550;2023-04-10T13:00:20;97223.84;;;14.42;68.93
21361;BME280;10839;43.206;23.550;2023-04-10T13:02:46;97220.81;;;14.63;69.43
21361;BME280;10839;43.206;23.550;2023-04-10T13:05:13;97230.13;;;14.36;73.55
21361;BME280;10839;43.206;23.550;2023-04-10T13:07:40;97222.59;;;13.87;72.49
21361;BME280;10839;43.206;23.550;2023-04-10T13:10:07;97219.56;;;13.58;70.03
21361;BME280;10839;43.206;23.550;2023-04-10T13:12:33;97228.22;;;13.86;71.74
21361;BME280;10839;43.206;23.550;2023-04-10T13:15:01;97208.44;;;12.82;82.65
21361;BME280;10839;43.206;23.550;2023-04-10T13:17:27;97227.97;;;13.24;81.78
21361;BME280;10839;43.206;23.550;2023-04-10T13:19:53;97215.91;;;13.13;82.57
21361;BME280;10839;43.206;23.550;2023-04-10T13:22:19;97223.13;;;13.52;83.56
21361;BME280;10839;43.206;23.550;2023-04-10T13:24:45;97220.47;;;12.86;81.64
21361;BME280;10839;43.206;23.550;2023-04-10T13:27:11;97218.81;;;12.85;82.40
21361;BME280;10839;43.206;23.550;2023-04-10T13:29:39;97215.47;;;12.70;79.92
21361;BME280;10839;43.206;23.550;2023-04-10T13:32:06;97218.41;;;12.75;79.53
21361;BME280;10839;43.206;23.550;2023-04-10T13:34:32;97209.22;;;12.50;78.86
21361;BME280;10839;43.206;23.550;2023-04-10T13:36:58;97208.81;;;12.73;79.56
21361;BME280;10839;43.206;23.550;2023-04-10T13:39:29;97203.84;;;12.63;79.16